Time;durP1;ratioP1;P1;durP2;ratioP2;P2;SDS_P1;SDS_P2;PMS_P1;PMS_P2;Temp;Humidity;BMP_temperature;BMP_pressure;BME280_temperature;BME280_humidity;BME280_pressure;Samples;Min_cycle;Max_cycle;Signal;HPM_P1;HPM_P2
2023/08/11 00:01:51;;;;;;;2.60;0.60;;;16.20;51.10;;;;;;5063445;28;20112;-76
2023/08/11 00:04:25;;;;;;;4.53;1.05;;;16.20;51.00;;;;;;5066264;28;20033;-76
2023/08/11 00:06:52;;;;;;;0.75;0.50;;;16.50;51.10;;;;;;5061281;28;20455;-79
2023/08/11 00:09:23;;;;;;;3.83;1.00;;;16.60;50.70;;;;;;5052426;28;20096;-82
2023/08/11 00:11:51;;;;;;;5.05;1.00;;;16.70;50.40;;;;;;5048302;28;20043;-84
2023/08/11 00:14:19;;;;;;;1.92;0.80;;;16.90;49.20;;;;;;5072034;28;20028;-81
2023/08/11 00:16:46;;;;;;;3.08;0.63;;;17.00;49.30;;;;;;5071709;28;20035;-80
2023/08/11 00:19:14;;;;;;;3.40;0.82;;;17.20;48.80;;;;;;5054142;28;20036;-78
2023/08/11 00:21:41;;;;;;;3.38;0.88;;;17.20;48.20;;;;;;5052297;28;20025;-79
2023/08/11 00:24:09;;;;;;;2.53;0.77;;;17.30;48.10;;;;;;5050025;28;20053;-79
2023/08/11 00:26:36;;;;;;;4.63;0.70;;;17.20;48.30;;;;;;5051738;28;20038;-79
2023/08/11 00:29:04;;;;;;;2.65;0.90;;;17.20;47.90;;;;;;5067266;28;20029;-78
2023/08/11 00:31:32;;;;;;;3.03;0.90;;;17.20;47.40;;;;;;5068945;28;20038;-80
2023/08/11 00:33:59;;;;;;;1.25;0.82;;;17.30;47.90;;;;;;5072063;28;20020;-77
2023/08/11 00:36:27;;;;;;;4.88;0.93;;;17.30;46.90;;;;;;5072140;28;20055;-78
2023/08/11 00:39:00;;;;;;;1.85;0.75;;;17.30;47.30;;;;;;5072053;28;20467;-78
2023/08/11 00:41:32;;;;;;;4.10;0.70;;;17.50;47.30;;;;;;5070918;28;20032;-78
2023/08/11 00:44:00;;;;;;;2.30;0.80;;;17.80;47.20;;;;;;5052605;28;20060;-78
2023/08/11 00:46:28;;;;;;;1.85;0.68;;;18.00;45.80;;;;;;5050985;28;20052;-78
2023/08/11 00:48:56;;;;;;;4.03;1.02;;;18.30;46.10;;;;;;5054634;28;20045;-77
2023/08/11 00:51:24;;;;;;;3.53;0.93;;;18.40;45.60;;;;;;5054123;28;20043;-76
2023/08/11 00:53:53;;;;;;;1.95;0.80;;;18.40;45.10;;;;;;5042516;28;20032;-78
2023/08/11 00:56:25;;;;;;;2.28;0.82;;;18.30;45.80;;;;;;5051794;28;20036;-80
2023/08/11 00:58:53;;;;;;;5.22;0.93;;;18.30;45.80;;;;;;5055704;28;20490;-79
2023/08/11 01:01:20;;;;;;;2.92;0.70;;;18.30;45.20;;;;;;5055097;28;20029;-77
2023/08/11 01:03:48;;;;;;;2.47;0.70;;;18.30;44.70;;;;;;5041724;28;20067;-81
2023/08/11 01:06:33;;;;;;;3.72;1.05;;;18.20;45.00;;;;;;5040582;28;20029;-82
2023/08/11 01:09:01;;;;;;;2.85;0.90;;;18.20;45.50;;;;;;5053432;28;20040;-78
2023/08/11 01:11:34;;;;;;;3.35;0.70;;;18.50;44.70;;;;;;5034919;28;20060;-77
2023/08/11 01:14:25;;;;;;;3.53;0.90;;;18.40;45.30;;;;;;5051207;28;20021;-75
2023/08/11 01:16:55;;;;;;;1.63;0.63;;;18.70;44.50;;;;;;5039440;28;20040;-78
2023/08/11 01:19:32;;;;;;;2.85;0.77;;;18.70;44.90;;;;;;5048439;28;20099;-82
2023/08/11 01:22:02;;;;;;;2.60;0.75;;;18.70;45.10;;;;;;5048909;28;20470;-81
2023/08/11 01:24:30;;;;;;;1.50;0.65;;;18.60;44.40;;;;;;5039544;28;20025;-80
2023/08/11 01:26:58;;;;;;;2.00;0.75;;;18.80;45.40;;;;;;5044897;28;20071;-83
2023/08/11 01:29:27;;;;;;;6.43;0.90;;;19.10;44.80;;;;;;5041105;28;20025;-79
2023/08/11 01:31:54;;;;;;;3.78;0.88;;;19.50;44.70;;;;;;5040041;28;20090;-78
2023/08/11 01:34:21;;;;;;;3.05;1.00;;;19.50;43.80;;;;;;5038949;28;20039;-84
2023/08/11 01:36:57;;;;;;;1.55;0.68;;;19.30;43.10;;;;;;5040923;28;20045;-84
2023/08/11 01:39:25;;;;;;;1.55;0.70;;;19.20;43.20;;;;;;5034898;28;20364;-82
2023/08/11 01:41:52;;;;;;;2.08;0.80;;;19.00;43.60;;;;;;5050584;28;20039;-78
2023/08/11 01:44:21;;;;;;;3.40;0.98;;;18.90;43.80;;;;;;5043796;28;20104;-82
2023/08/11 01:46:50;;;;;;;3.88;0.80;;;18.80;43.70;;;;;;5045092;28;20456;-79
2023/08/11 01:49:18;;;;;;;4.55;0.60;;;18.70;44.30;;;;;;5042795;28;20030;-84
2023/08/11 01:51:45;;;;;;;5.10;1.00;;;18.70;44.80;;;;;;5039976;28;20052;-80
2023/08/11 01:54:13;;;;;;;3.65;0.80;;;18.70;44.80;;;;;;5039387;28;20040;-77
2023/08/11 01:56:42;;;;;;;2.45;0.70;;;18.70;46.30;;;;;;5044185;28;20112;-80
2023/08/11 01:59:17;;;;;;;2.60;0.80;;;18.80;45.00;;;;;;5037534;28;20402;-79
2023/08/11 02:01:45;;;;;;;2.08;0.80;;;18.80;44.90;;;;;;5051312;28;20028;-84
2023/08/11 02:04:12;;;;;;;2.90;0.52;;;18.80;46.20;;;;;;5064239;28;20475;-78
2023/08/11 02:06:40;;;;;;;2.17;0.73;;;19.00;45.70;;;;;;5038576;28;20051;-84
2023/08/11 02:09:09;;;;;;;2.10;0.93;;;19.20;44.80;;;;;;5040123;28;20128;-81
2023/08/11 02:11:40;;;;;;;2.30;0.52;;;19.30;44.30;;;;;;5046046;28;20037;-78
2023/08/11 02:14:08;;;;;;;4.85;0.98;;;19.50;43.30;;;;;;5037399;28;20147;-78
2023/08/11 02:16:36;;;;;;;2.88;0.80;;;19.40;43.40;;;;;;5047844;28;20086;-77
2023/08/11 02:19:05;;;;;;;7.28;0.90;;;19.20;43.80;;;;;;5044932;28;20033;-80
2023/08/11 02:21:33;;;;;;;4.05;0.70;;;19.20;44.30;;;;;;5035850;28;20028;-78
2023/08/11 02:24:00;;;;;;;2.13;0.70;;;19.20;44.80;;;;;;5047501;28;20060;-78
2023/08/11 02:26:28;;;;;;;3.38;1.00;;;19.10;45.10;;;;;;5033767;28;20499;-79
2023/08/11 02:28:55;;;;;;;3.15;0.85;;;19.00;45.50;;;;;;5033664;28;20152;-78
2023/08/11 02:31:23;;;;;;;3.88;0.70;;;19.00;45.40;;;;;;5033462;28;20557;-78
2023/08/11 02:33:50;;;;;;;4.28;0.90;;;19.00;45.70;;;;;;5036692;28;20467;-81
2023/08/11 02:36:19;;;;;;;2.70;1.13;;;18.90;45.40;;;;;;5056804;28;20039;-85
2023/08/11 02:38:46;;;;;;;1.58;0.88;;;18.80;44.70;;;;;;5041508;28;20036;-83
2023/08/11 02:41:14;;;;;;;1.83;0.60;;;18.80;44.50;;;;;;5036638;28;20021;-83
2023/08/11 02:43:41;;;;;;;2.17;0.98;;;18.70;44.30;;;;;;5049997;28;20037;-79
2023/08/11 02:46:09;;;;;;;3.78;0.85;;;18.70;45.50;;;;;;5062375;28;20036;-78
2023/08/11 02:48:38;;;;;;;2.38;0.80;;;18.70;45.60;;;;;;5043302;28;20107;-78
2023/08/11 02:51:06;;;;;;;6.97;1.05;;;18.70;45.30;;;;;;5046909;28;20037;-79
2023/08/11 02:53:33;;;;;;;3.40;0.90;;;18.70;44.70;;;;;;5044648;28;20060;-82
2023/08/11 02:56:06;;;;;;;2.22;0.80;;;18.70;44.80;;;;;;5036802;28;20656;-80
2023/08/11 02:58:33;;;;;;;1.60;1.08;;;18.70;44.70;;;;;;5036527;28;20619;-78
2023/08/11 03:01:03;;;;;;;2.67;1.00;;;18.80;45.20;;;;;;5038362;28;20088;-79
2023/08/11 03:03:30;;;;;;;3.50;1.00;;;18.90;43.60;;;;;;5044551;28;20060;-77
2023/08/11 03:05:58;;;;;;;3.95;0.98;;;18.80;44.30;;;;;;5038679;28;20033;-79
2023/08/11 03:08:25;;;;;;;2.92;1.08;;;18.80;45.00;;;;;;5038919;28;20033;-80
2023/08/11 03:10:52;;;;;;;3.25;0.90;;;18.90;45.60;;;;;;5039943;28;20025;-79
2023/08/11 03:13:20;;;;;;;1.58;0.70;;;18.90;45.40;;;;;;5042330;28;20097;-78
2023/08/11 03:15:49;;;;;;;4.53;1.60;;;18.90;45.80;;;;;;5046307;28;20029;-84
2023/08/11 03:18:16;;;;;;;2.90;0.90;;;18.90;46.60;;;;;;5040706;28;20128;-82
2023/08/11 03:20:43;;;;;;;3.65;1.08;;;18.90;47.00;;;;;;5038053;28;20075;-82
2023/08/11 03:23:11;;;;;;;3.33;1.20;;;19.00;46.60;;;;;;5036798;28;20053;-82
2023/08/11 03:25:38;;;;;;;4.32;1.15;;;19.10;47.20;;;;;;5051788;28;20052;-81
2023/08/11 03:28:06;;;;;;;4.28;1.25;;;19.20;47.50;;;;;;5047236;28;20412;-81
2023/08/11 03:30:33;;;;;;;4.05;1.10;;;19.20;47.70;;;;;;5045645;28;20077;-80
2023/08/11 03:33:04;;;;;;;2.78;1.38;;;19.20;47.60;;;;;;5046827;28;20031;-83
2023/08/11 03:35:34;;;;;;;6.32;1.23;;;19.30;47.70;;;;;;5057141;28;20028;-78
2023/08/11 03:38:01;;;;;;;1.60;1.10;;;19.30;47.60;;;;;;5063920;28;20036;-79
2023/08/11 03:40:30;;;;;;;2.15;0.80;;;19.30;47.80;;;;;;5048652;28;20040;-82
2023/08/11 03:42:57;;;;;;;2.53;0.80;;;19.40;47.70;;;;;;5037068;28;20033;-78
2023/08/11 03:45:25;;;;;;;3.40;1.35;;;19.50;48.10;;;;;;5044124;28;20148;-84
2023/08/11 03:47:52;;;;;;;3.35;1.00;;;19.50;48.60;;;;;;5035040;28;20511;-76
2023/08/11 03:50:20;;;;;;;2.97;1.00;;;19.40;46.80;;;;;;5041106;28;20028;-77
2023/08/11 03:52:48;;;;;;;3.03;1.10;;;19.40;47.00;;;;;;5050380;28;20108;-76
2023/08/11 03:55:16;;;;;;;3.05;0.95;;;19.40;47.20;;;;;;5051032;28;20025;-78
2023/08/11 03:57:44;;;;;;;2.40;0.80;;;19.40;47.10;;;;;;5050429;28;20059;-78
2023/08/11 04:00:16;;;;;;;5.28;1.10;;;19.30;47.50;;;;;;5052407;28;20037;-78
2023/08/11 04:02:46;;;;;;;4.47;0.80;;;19.30;47.50;;;;;;5048114;28;20021;-78
2023/08/11 04:05:15;;;;;;;3.35;0.95;;;19.30;47.90;;;;;;5050778;28;20029;-77
2023/08/11 04:07:44;;;;;;;1.67;0.70;;;19.40;47.80;;;;;;5047992;28;20506;-86
2023/08/11 04:10:12;;;;;;;2.17;1.00;;;19.40;47.90;;;;;;5042977;28;20060;-89
2023/08/11 04:12:39;;;;;;;3.40;1.13;;;19.40;48.10;;;;;;5046755;28;20040;-77
2023/08/11 04:15:07;;;;;;;3.60;0.88;;;19.40;47.70;;;;;;5051647;28;20025;-77
2023/08/11 04:17:36;;;;;;;4.85;0.98;;;19.40;47.80;;;;;;5046278;28;20037;-78
2023/08/11 04:20:23;;;;;;;3.28;1.00;;;19.40;48.80;;;;;;5045083;28;20041;-77
2023/08/11 04:22:50;;;;;;;4.97;0.88;;;19.40;48.50;;;;;;5063223;28;20482;-83
2023/08/11 04:25:18;;;;;;;3.70;1.00;;;19.40;48.20;;;;;;5041139;28;20174;-79
2023/08/11 04:27:46;;;;;;;3.08;1.23;;;19.40;48.20;;;;;;5057683;28;20480;-77
2023/08/11 04:30:13;;;;;;;6.35;1.40;;;19.50;48.60;;;;;;5046652;28;20044;-85
2023/08/11 04:32:41;;;;;;;2.83;0.88;;;19.50;48.50;;;;;;5058507;28;20075;-77
2023/08/11 04:35:08;;;;;;;4.70;1.05;;;19.50;48.70;;;;;;5047081;28;20470;-77
2023/08/11 04:37:36;;;;;;;2.70;0.93;;;19.60;48.30;;;;;;5052180;28;20031;-79
2023/08/11 04:40:08;;;;;;;4.40;1.08;;;19.60;47.10;;;;;;5044939;28;20074;-85
2023/08/11 04:42:39;;;;;;;3.15;1.00;;;19.70;44.10;;;;;;5047955;28;20038;-78
2023/08/11 04:45:07;;;;;;;1.83;0.73;;;19.70;44.40;;;;;;5039496;28;20021;-77
2023/08/11 04:47:36;;;;;;;3.20;1.17;;;19.70;41.30;;;;;;5055007;28;20376;-77
2023/08/11 04:50:04;;;;;;;4.35;1.50;;;19.80;43.10;;;;;;5046954;28;20025;-77
2023/08/11 04:52:32;;;;;;;4.40;1.35;;;19.80;45.90;;;;;;5048404;28;20041;-78
2023/08/11 04:54:59;;;;;;;5.32;1.20;;;19.80;46.70;;;;;;5066378;28;20054;-78
2023/08/11 04:57:28;;;;;;;4.38;1.40;;;19.80;46.90;;;;;;5034856;28;20495;-76
2023/08/11 04:59:55;;;;;;;6.40;1.08;;;19.80;46.70;;;;;;5046553;28;20033;-78
2023/08/11 05:02:23;;;;;;;4.03;0.93;;;19.70;47.30;;;;;;5050938;28;20033;-78
2023/08/11 05:04:50;;;;;;;4.07;1.20;;;19.80;47.20;;;;;;5036444;28;20098;-77
2023/08/11 05:07:17;;;;;;;2.80;1.02;;;19.70;47.30;;;;;;5062873;28;20028;-82
2023/08/11 05:09:45;;;;;;;4.28;1.00;;;19.70;48.10;;;;;;5036907;28;20563;-77
2023/08/11 05:12:12;;;;;;;5.40;1.15;;;19.60;48.20;;;;;;5041637;28;20029;-84
2023/08/11 05:14:40;;;;;;;7.65;1.15;;;19.50;49.10;;;;;;5045178;28;20505;-83
2023/08/11 05:17:07;;;;;;;5.57;1.02;;;19.50;49.30;;;;;;5039678;28;20041;-78
2023/08/11 05:19:36;;;;;;;4.35;0.98;;;19.40;49.60;;;;;;5051703;28;20497;-79
2023/08/11 05:22:03;;;;;;;5.45;0.88;;;19.40;50.00;;;;;;5035109;28;20029;-79
2023/08/11 05:24:31;;;;;;;3.33;0.93;;;19.40;49.80;;;;;;5037763;28;20026;-78
2023/08/11 05:26:58;;;;;;;3.85;0.90;;;19.40;50.50;;;;;;5051553;28;20036;-86
2023/08/11 05:29:26;;;;;;;3.38;1.00;;;19.30;50.20;;;;;;5043808;28;20024;-78
2023/08/11 05:31:53;;;;;;;2.83;1.45;;;19.30;50.70;;;;;;5050736;28;20431;-81
2023/08/11 05:34:20;;;;;;;2.88;1.05;;;19.30;50.20;;;;;;5038522;28;20027;-78
2023/08/11 05:36:48;;;;;;;4.55;1.00;;;19.30;50.70;;;;;;5048202;28;20108;-86
2023/08/11 05:39:16;;;;;;;4.15;1.10;;;19.20;50.90;;;;;;5046367;28;20472;-77
2023/08/11 05:41:44;;;;;;;3.40;0.93;;;19.20;50.80;;;;;;5043293;28;20044;-78
2023/08/11 05:44:12;;;;;;;5.75;1.20;;;19.20;51.40;;;;;;5047936;28;20075;-79
2023/08/11 05:46:40;;;;;;;3.15;1.10;;;19.20;50.80;;;;;;5044144;28;20033;-77
2023/08/11 05:49:07;;;;;;;4.78;1.42;;;19.20;50.70;;;;;;5034752;28;20032;-90
2023/08/11 05:51:35;;;;;;;4.97;1.17;;;19.20;51.10;;;;;;5039927;28;20041;-79
2023/08/11 05:54:02;;;;;;;4.57;1.40;;;19.20;50.10;;;;;;5063432;28;20040;-82
2023/08/11 05:56:33;;;;;;;3.17;1.00;;;19.20;50.80;;;;;;5059210;28;20490;-78
2023/08/11 05:59:00;;;;;;;7.57;1.30;;;19.10;51.00;;;;;;5052586;28;20036;-89
2023/08/11 06:01:30;;;;;;;2.35;1.02;;;19.10;51.40;;;;;;5051219;28;20422;-78
2023/08/11 06:03:58;;;;;;;8.10;1.33;;;19.00;51.80;;;;;;5035775;28;20026;-86
2023/08/11 06:06:28;;;;;;;2.55;1.00;;;19.00;51.10;;;;;;5042164;28;20383;-79
2023/08/11 06:08:56;;;;;;;7.25;1.50;;;19.00;50.90;;;;;;5050211;28;20025;-76
2023/08/11 06:11:25;;;;;;;4.32;1.00;;;18.90;51.10;;;;;;5053842;28;20072;-77
2023/08/11 06:13:54;;;;;;;3.00;1.20;;;18.80;51.70;;;;;;5043126;28;20022;-77
2023/08/11 06:16:43;;;;;;;3.50;1.23;;;18.80;51.90;;;;;;5056530;28;20062;-77
2023/08/11 06:19:10;;;;;;;6.88;1.10;;;18.80;52.10;;;;;;5037831;28;20038;-77
2023/08/11 06:21:38;;;;;;;6.10;1.42;;;18.70;51.60;;;;;;5046928;28;20032;-79
2023/08/11 06:24:05;;;;;;;3.70;1.30;;;18.70;51.90;;;;;;5040014;28;20033;-78
2023/08/11 06:26:33;;;;;;;2.15;0.95;;;18.60;52.00;;;;;;5050185;28;20475;-77
2023/08/11 06:29:00;;;;;;;5.93;1.27;;;18.60;52.10;;;;;;5051487;28;20029;-79
2023/08/11 06:31:27;;;;;;;2.92;1.00;;;18.50;52.20;;;;;;5051091;28;20053;-78
2023/08/11 06:33:56;;;;;;;3.97;1.08;;;18.50;51.60;;;;;;5050602;28;20132;-78
2023/08/11 06:36:24;;;;;;;5.40;1.10;;;18.50;52.10;;;;;;5039600;28;20120;-79
2023/08/11 06:38:53;;;;;;;5.53;1.55;;;18.40;52.50;;;;;;5049764;28;20101;-77
2023/08/11 06:41:22;;;;;;;5.20;1.35;;;18.40;52.60;;;;;;5048450;28;20029;-80
2023/08/11 06:43:49;;;;;;;2.53;1.20;;;18.30;52.80;;;;;;5041596;28;20071;-80
2023/08/11 06:46:16;;;;;;;4.05;1.23;;;18.30;53.10;;;;;;5056217;28;20593;-84
2023/08/11 06:48:44;;;;;;;3.95;1.08;;;18.20;52.70;;;;;;5052525;28;20547;-77
2023/08/11 06:51:12;;;;;;;5.65;1.33;;;18.20;52.80;;;;;;5049180;28;20033;-77
2023/08/11 06:53:39;;;;;;;5.70;1.50;;;18.20;52.90;;;;;;5055658;28;20039;-77
2023/08/11 06:56:07;;;;;;;5.35;1.35;;;18.20;52.70;;;;;;5050030;28;20478;-78
2023/08/11 06:58:34;;;;;;;4.35;1.50;;;18.10;52.80;;;;;;5037901;28;20379;-77
2023/08/11 07:01:03;;;;;;;4.22;1.38;;;18.00;53.00;;;;;;5048454;28;20036;-79
2023/08/11 07:03:33;;;;;;;4.03;1.30;;;18.00;53.80;;;;;;5042513;28;20454;-78
2023/08/11 07:06:03;;;;;;;4.93;1.30;;;18.00;54.00;;;;;;5035174;28;20037;-78
2023/08/11 07:08:31;;;;;;;3.95;1.40;;;18.00;55.00;;;;;;5042574;28;20426;-78
2023/08/11 07:10:58;;;;;;;3.55;1.45;;;17.90;54.50;;;;;;5040344;28;20068;-78
2023/08/11 07:13:25;;;;;;;4.72;1.40;;;17.90;54.10;;;;;;5032356;28;20076;-78
2023/08/11 07:15:56;;;;;;;2.28;1.23;;;17.80;55.10;;;;;;5040265;28;20098;-78
2023/08/11 07:18:24;;;;;;;3.25;1.63;;;17.80;55.20;;;;;;5044702;28;20049;-78
2023/08/11 07:20:51;;;;;;;2.97;1.33;;;17.80;55.00;;;;;;5054330;28;20025;-80
2023/08/11 07:23:19;;;;;;;4.60;1.63;;;17.80;55.20;;;;;;5051441;28;20033;-78
2023/08/11 07:25:46;;;;;;;8.68;1.75;;;17.70;55.40;;;;;;5060003;28;20029;-79
2023/08/11 07:28:13;;;;;;;4.00;1.40;;;17.70;55.40;;;;;;5053400;28;20431;-78
2023/08/11 07:30:41;;;;;;;5.68;1.88;;;17.70;55.50;;;;;;5038675;28;20337;-78
2023/08/11 07:33:08;;;;;;;6.85;2.60;;;17.60;55.30;;;;;;5036521;28;20418;-79
2023/08/11 07:35:36;;;;;;;4.78;2.10;;;17.60;55.20;;;;;;5034509;28;20054;-78
2023/08/11 07:38:05;;;;;;;5.63;2.60;;;17.50;55.50;;;;;;5037474;28;20036;-79
2023/08/11 07:40:32;;;;;;;5.93;2.20;;;17.40;55.50;;;;;;5045532;28;20033;-82
2023/08/11 07:43:00;;;;;;;9.35;2.15;;;17.40;55.50;;;;;;5039928;28;20021;-78
2023/08/11 07:45:28;;;;;;;5.13;2.50;;;17.30;55.50;;;;;;5041201;28;20028;-79
2023/08/11 07:47:55;;;;;;;7.00;3.08;;;17.30;55.70;;;;;;5044406;28;20430;-82
2023/08/11 07:50:22;;;;;;;7.70;3.13;;;17.30;55.80;;;;;;5059606;28;20044;-77
2023/08/11 07:52:50;;;;;;;10.40;3.78;;;17.20;55.90;;;;;;5057065;28;20081;-77
2023/08/11 07:55:17;;;;;;;4.25;2.17;;;17.20;55.90;;;;;;5041332;28;20052;-76
2023/08/11 07:57:44;;;;;;;4.43;2.10;;;17.10;55.80;;;;;;5065119;28;20116;-78
2023/08/11 08:00:16;;;;;;;5.20;1.90;;;17.20;55.80;;;;;;5035011;28;20468;-77
2023/08/11 08:02:44;;;;;;;3.67;1.67;;;17.10;56.40;;;;;;5031556;28;20480;-79
2023/08/11 08:05:12;;;;;;;3.30;1.50;;;17.10;56.30;;;;;;5059275;28;20164;-80
2023/08/11 08:07:40;;;;;;;5.35;1.95;;;17.10;56.00;;;;;;5048609;28;20037;-79
2023/08/11 08:10:13;;;;;;;3.10;1.70;;;17.00;55.90;;;;;;5042087;28;20036;-78
2023/08/11 08:12:45;;;;;;;6.65;2.03;;;17.00;56.40;;;;;;5061304;28;20033;-78
2023/08/11 08:15:16;;;;;;;7.03;1.83;;;16.90;56.60;;;;;;5062132;28;20029;-81
2023/08/11 08:17:44;;;;;;;6.03;1.95;;;16.90;56.70;;;;;;5051240;28;20043;-79
2023/08/11 08:20:16;;;;;;;5.18;2.10;;;16.90;56.30;;;;;;5033454;28;20431;-81
2023/08/11 08:22:43;;;;;;;6.68;1.88;;;16.80;56.50;;;;;;5059719;28;20025;-81
2023/08/11 08:25:12;;;;;;;5.45;1.88;;;16.80;56.50;;;;;;5051792;28;20025;-85
2023/08/11 08:27:40;;;;;;;5.35;1.80;;;16.70;56.60;;;;;;5059438;28;20032;-86
2023/08/11 08:30:10;;;;;;;5.80;2.00;;;16.70;56.30;;;;;;5041763;28;20057;-89
2023/08/11 08:32:39;;;;;;;3.55;1.95;;;16.70;56.10;;;;;;5034269;28;20411;-84
2023/08/11 08:35:07;;;;;;;3.00;1.83;;;16.70;57.10;;;;;;5047985;28;20025;-80
2023/08/11 08:37:35;;;;;;;4.50;1.90;;;16.60;56.80;;;;;;5036099;28;20037;-88
2023/08/11 08:40:04;;;;;;;5.10;2.25;;;16.60;56.90;;;;;;5052407;28;20023;-88
2023/08/11 08:42:31;;;;;;;5.85;1.70;;;16.50;57.40;;;;;;5047560;28;20029;-90
2023/08/11 08:44:59;;;;;;;3.20;1.60;;;16.50;57.40;;;;;;5046918;28;20101;-91
2023/08/11 08:47:28;;;;;;;7.03;2.47;;;16.40;57.60;;;;;;5051934;28;20033;-90
2023/08/11 08:49:58;;;;;;;5.82;2.28;;;16.50;57.20;;;;;;5045855;28;20021;-89
2023/08/11 08:52:25;;;;;;;4.40;2.28;;;16.40;57.60;;;;;;5035658;28;20513;-88
2023/08/11 08:54:53;;;;;;;4.95;2.17;;;16.40;57.60;;;;;;5039551;28;20519;-86
2023/08/11 08:57:22;;;;;;;5.97;2.78;;;16.40;57.60;;;;;;5051483;28;20434;-90
2023/08/11 08:59:49;;;;;;;6.00;2.80;;;16.40;56.80;;;;;;5052774;28;20025;-90
2023/08/11 09:02:17;;;;;;;3.78;2.40;;;16.40;56.70;;;;;;5047934;28;20495;-90
2023/08/11 09:04:47;;;;;;;4.18;2.10;;;16.40;56.80;;;;;;5038290;28;20025;-89
2023/08/11 09:07:18;;;;;;;6.47;2.10;;;16.30;56.70;;;;;;5045737;28;20115;-83
2023/08/11 09:09:45;;;;;;;6.07;2.50;;;16.30;57.20;;;;;;5050844;28;20020;-87
2023/08/11 09:12:13;;;;;;;4.78;2.00;;;16.30;57.30;;;;;;5072277;28;20120;-86
2023/08/11 09:14:43;;;;;;;4.53;2.17;;;16.20;57.60;;;;;;5053026;28;20514;-90
2023/08/11 09:17:11;;;;;;;3.58;2.10;;;16.20;57.90;;;;;;5051722;28;20048;-82
2023/08/11 09:19:42;;;;;;;4.85;2.83;;;16.20;58.20;;;;;;5058209;28;20111;-83
2023/08/11 09:22:13;;;;;;;3.67;2.05;;;16.20;58.50;;;;;;5044007;28;20036;-87
2023/08/11 09:24:43;;;;;;;5.78;2.50;;;16.10;59.30;;;;;;5061998;28;20491;-81
2023/08/11 09:27:13;;;;;;;4.43;2.65;;;16.10;58.90;;;;;;5045246;28;20070;-86
2023/08/11 09:29:40;;;;;;;6.43;3.15;;;16.00;59.60;;;;;;5066894;28;20086;-85
2023/08/11 09:32:08;;;;;;;5.82;2.70;;;16.00;59.90;;;;;;5048782;28;20029;-86
2023/08/11 09:34:39;;;;;;;6.03;3.10;;;15.90;60.20;;;;;;5043017;28;20036;-82
2023/08/11 09:37:07;;;;;;;5.68;3.15;;;15.90;60.30;;;;;;5036156;28;20029;-79
2023/08/11 09:39:36;;;;;;;7.32;3.53;;;15.80;60.40;;;;;;5035334;28;20029;-81
2023/08/11 09:42:05;;;;;;;6.45;3.40;;;15.80;60.20;;;;;;5064188;28;20056;-83
2023/08/11 09:44:32;;;;;;;6.50;3.20;;;15.70;60.90;;;;;;5038931;28;20424;-83
2023/08/11 09:47:02;;;;;;;6.65;3.00;;;15.70;60.30;;;;;;5040205;28;20017;-85
2023/08/11 09:49:29;;;;;;;5.82;3.22;;;15.60;59.90;;;;;;5035818;28;20061;-86
2023/08/11 09:52:02;;;;;;;6.70;2.90;;;15.60;61.20;;;;;;5036090;28;20041;-87
2023/08/11 09:54:30;;;;;;;7.95;2.72;;;15.60;61.40;;;;;;5035638;28;20025;-78
2023/08/11 09:56:59;;;;;;;6.50;3.65;;;15.50;61.40;;;;;;5039640;28;20074;-83
2023/08/11 09:59:27;;;;;;;5.95;3.13;;;15.50;62.10;;;;;;5044338;28;20440;-80
2023/08/11 10:01:58;;;;;;;7.97;3.47;;;15.60;61.20;;;;;;5041732;28;20082;-82
2023/08/11 10:04:48;;;;;;;6.40;3.72;;;15.50;61.20;;;;;;5054397;28;20047;-82
2023/08/11 10:07:19;;;;;;;5.85;3.47;;;15.40;60.70;;;;;;5049319;28;20030;-86
2023/08/11 10:09:50;;;;;;;9.05;3.67;;;15.40;60.90;;;;;;5034194;28;20102;-88
2023/08/11 10:12:20;;;;;;;4.80;3.20;;;15.30;61.80;;;;;;5045592;28;20120;-88
2023/08/11 10:14:47;;;;;;;8.98;3.75;;;15.30;61.40;;;;;;5060150;28;20110;-88
2023/08/11 10:17:15;;;;;;;8.98;4.07;;;15.20;61.50;;;;;;5047283;28;20087;-87
2023/08/11 10:19:43;;;;;;;7.70;3.80;;;15.20;61.90;;;;;;5063481;28;20025;-87
2023/08/11 10:22:11;;;;;;;7.97;3.90;;;15.20;62.40;;;;;;5037668;28;20053;-78
2023/08/11 10:24:40;;;;;;;7.25;3.92;;;15.20;63.00;;;;;;5051602;28;20058;-83
2023/08/11 10:27:08;;;;;;;11.32;5.25;;;15.20;62.30;;;;;;5048688;28;20375;-85
2023/08/11 10:29:38;;;;;;;8.25;4.28;;;15.20;62.30;;;;;;5043631;28;20493;-85
2023/08/11 10:32:05;;;;;;;9.25;6.13;;;15.20;61.60;;;;;;5053938;28;20029;-79
2023/08/11 10:34:33;;;;;;;6.90;3.35;;;15.20;61.20;;;;;;5050063;28;20020;-84
2023/08/11 10:37:00;;;;;;;9.80;4.43;;;15.40;60.60;;;;;;5059842;28;20063;-84
2023/08/11 10:39:28;;;;;;;11.18;4.00;;;15.40;60.30;;;;;;5047673;28;20044;-85
2023/08/11 10:41:59;;;;;;;4.50;2.45;;;15.30;59.90;;;;;;5046980;28;20049;-86
2023/08/11 10:44:30;;;;;;;7.43;2.63;;;15.30;59.90;;;;;;5052592;28;20040;-88
2023/08/11 10:47:03;;;;;;;6.53;2.45;;;15.30;59.80;;;;;;5061400;28;20017;-84
2023/08/11 10:49:40;;;;;;;6.50;2.75;;;15.30;60.10;;;;;;5052209;28;20066;-86
2023/08/11 10:52:08;;;;;;;4.18;2.60;;;15.40;59.60;;;;;;5052805;28;20040;-84
2023/08/11 10:54:36;;;;;;;6.35;4.75;;;15.40;59.60;;;;;;5050965;28;20043;-77
2023/08/11 10:57:04;;;;;;;7.57;2.50;;;15.30;60.10;;;;;;5052808;28;20030;-86
2023/08/11 10:59:42;;;;;;;7.22;3.08;;;15.40;60.10;;;;;;5040504;28;20025;-87
2023/08/11 11:02:09;;;;;;;8.57;3.95;;;15.30;60.10;;;;;;5062963;28;20123;-85
2023/08/11 11:04:36;;;;;;;4.53;1.95;;;15.30;60.10;;;;;;5052029;28;20048;-88
2023/08/11 11:07:04;;;;;;;3.45;2.00;;;15.30;60.10;;;;;;5053156;28;20317;-82
2023/08/11 11:09:32;;;;;;;5.88;3.15;;;15.30;59.70;;;;;;5051250;28;20056;-83
2023/08/11 11:11:59;;;;;;;6.95;2.00;;;15.30;59.80;;;;;;5051060;28;20407;-84
2023/08/11 11:14:26;;;;;;;6.22;2.05;;;15.30;59.90;;;;;;5053703;28;20094;-87
2023/08/11 11:16:58;;;;;;;6.50;2.28;;;15.30;59.80;;;;;;5049450;28;20029;-81
2023/08/11 11:19:26;;;;;;;4.15;1.73;;;15.20;60.00;;;;;;5055669;28;20072;-86
2023/08/11 11:21:54;;;;;;;6.72;1.73;;;15.20;59.80;;;;;;5062385;28;20028;-88
2023/08/11 11:24:22;;;;;;;4.13;1.83;;;15.20;59.90;;;;;;5069759;28;20101;-87
2023/08/11 11:26:49;;;;;;;3.90;1.92;;;15.20;60.00;;;;;;5058469;28;20036;-87
2023/08/11 11:29:23;;;;;;;7.40;2.50;;;15.20;60.20;;;;;;5054075;28;20017;-85
2023/08/11 11:31:50;;;;;;;7.40;2.80;;;15.10;60.50;;;;;;5049366;28;20033;-80
2023/08/11 11:34:20;;;;;;;8.00;2.10;;;15.00;60.50;;;;;;5051535;28;20029;-88
2023/08/11 11:36:48;;;;;;;4.63;1.92;;;15.10;60.40;;;;;;5051953;28;20060;-86
2023/08/11 11:39:15;;;;;;;1.63;1.40;;;15.10;60.30;;;;;;5056570;28;20104;-86
2023/08/11 11:41:43;;;;;;;8.38;6.75;;;15.10;60.40;;;;;;5053408;28;20028;-78
2023/08/11 11:44:11;;;;;;;10.38;5.43;;;15.00;60.70;;;;;;5052727;28;20028;-85
2023/08/11 11:46:38;;;;;;;3.05;2.17;;;15.00;61.30;;;;;;5050398;28;20021;-85
2023/08/11 11:49:07;;;;;;;7.50;3.28;;;15.00;61.20;;;;;;5049612;28;20059;-87
2023/08/11 11:51:34;;;;;;;7.50;2.10;;;15.00;61.10;;;;;;5047438;28;20388;-77
2023/08/11 11:54:02;;;;;;;4.43;2.40;;;15.00;61.00;;;;;;5051918;28;20021;-89
2023/08/11 11:56:30;;;;;;;9.02;3.95;;;14.90;61.10;;;;;;5051183;28;20116;-88
2023/08/11 11:58:58;;;;;;;8.35;3.92;;;14.80;61.50;;;;;;5057626;28;20056;-87
2023/08/11 12:01:29;;;;;;;9.77;3.47;;;14.70;62.30;;;;;;5055652;28;20021;-85
2023/08/11 12:03:59;;;;;;;9.43;6.45;;;14.70;62.60;;;;;;5067542;28;20028;-78
2023/08/11 12:06:30;;;;;;;13.52;11.95;;;14.70;62.90;;;;;;5082137;28;20035;-82
2023/08/11 12:09:11;;;;;;;7.63;3.38;;;14.70;62.90;;;;;;5069709;28;20084;-78
2023/08/11 12:11:43;;;;;;;3.58;2.25;;;14.70;62.60;;;;;;5074104;28;20032;-85
2023/08/11 12:14:15;;;;;;;5.15;3.13;;;14.70;62.60;;;;;;5056713;28;20487;-87
2023/08/11 12:16:43;;;;;;;4.70;2.63;;;14.70;62.70;;;;;;5052660;28;20041;-87
2023/08/11 12:19:12;;;;;;;3.83;1.77;;;14.60;62.80;;;;;;5058346;28;20068;-86
2023/08/11 12:21:39;;;;;;;8.98;3.70;;;14.70;62.70;;;;;;5052789;28;20540;-79
2023/08/11 12:24:11;;;;;;;4.80;2.25;;;14.60;63.30;;;;;;5056545;28;20072;-80
2023/08/11 12:26:39;;;;;;;7.32;2.50;;;14.60;63.40;;;;;;5050205;28;20032;-85
2023/08/11 12:29:07;;;;;;;5.40;2.25;;;14.50;63.50;;;;;;5060016;28;20025;-81
2023/08/11 12:31:35;;;;;;;5.45;2.08;;;14.50;63.60;;;;;;5050745;28;20082;-77
2023/08/11 12:34:02;;;;;;;4.47;2.15;;;14.40;63.90;;;;;;5042406;28;20021;-81
2023/08/11 12:36:29;;;;;;;6.32;2.05;;;14.30;64.10;;;;;;5049516;28;20381;-81
2023/08/11 12:38:57;;;;;;;3.28;1.65;;;14.20;64.30;;;;;;5051075;28;20074;-78
2023/08/11 12:41:24;;;;;;;3.33;1.60;;;14.10;64.50;;;;;;5049383;28;20079;-78
2023/08/11 12:43:51;;;;;;;5.20;2.17;;;14.00;65.00;;;;;;5051423;28;20052;-79
2023/08/11 12:46:19;;;;;;;5.18;2.22;;;13.90;65.50;;;;;;5054592;28;20024;-78
2023/08/11 12:48:46;;;;;;;4.68;1.90;;;13.80;65.90;;;;;;5070335;28;20037;-83
2023/08/11 12:51:14;;;;;;;7.00;2.45;;;13.80;66.40;;;;;;5052822;28;20086;-78
2023/08/11 12:53:41;;;;;;;5.20;2.72;;;13.80;67.40;;;;;;5064526;28;20099;-78